createdAt,value
2022-11-29T00:02:17.413Z,5.70
2022-11-29T00:06:21.804Z,5.66
2022-11-29T00:10:23.297Z,5.62
2022-11-29T00:14:26.448Z,5.64
2022-11-29T00:18:28.036Z,5.65
2022-11-29T00:22:30.057Z,5.68
2022-11-29T00:26:31.591Z,5.65
2022-11-29T00:30:33.907Z,5.70
2022-11-29T00:34:35.597Z,5.74
2022-11-29T00:38:37.466Z,5.76
2022-11-29T00:42:38.972Z,5.74
2022-11-29T00:46:42.044Z,5.79
2022-11-29T00:50:43.604Z,5.74
2022-11-29T00:54:45.314Z,5.84
2022-11-29T00:58:48.461Z,5.85
2022-11-29T01:02:50.179Z,5.82
2022-11-29T01:06:53.032Z,5.87
2022-11-29T01:11:02.792Z,5.83
2022-11-29T01:15:07.138Z,5.91
2022-11-29T01:19:08.740Z,5.92
2022-11-29T01:23:10.246Z,5.94
2022-11-29T01:27:11.818Z,5.88
2022-11-29T01:31:21.512Z,5.89
2022-11-29T01:35:23.132Z,5.94
2022-11-29T01:39:24.744Z,5.88
2022-11-29T01:43:26.756Z,5.84
2022-11-29T01:47:29.234Z,5.88
2022-11-29T01:51:32.655Z,5.91
2022-11-29T01:55:38.608Z,5.87
2022-11-29T01:59:48.415Z,5.93
2022-11-29T02:03:50.118Z,5.91
2022-11-29T02:07:55.101Z,5.98
2022-11-29T02:12:14.907Z,5.96
2022-11-29T02:16:23.536Z,5.88
2022-11-29T02:20:40.341Z,5.84
2022-11-29T02:24:55.596Z,5.77
2022-11-29T02:29:34.041Z,5.63
2022-11-29T02:34:09.388Z,5.60
2022-11-29T02:39:01.147Z,5.54
2022-11-29T02:43:24.632Z,5.49
2022-11-29T02:47:37.410Z,5.44
2022-11-29T02:51:48.032Z,5.42
2022-11-29T02:56:12.832Z,5.31
2022-11-29T03:00:19.157Z,5.31
2022-11-29T03:04:23.709Z,5.31
2022-11-29T03:08:29.728Z,5.19
2022-11-29T03:12:40.268Z,5.25
2022-11-29T03:17:05.613Z,5.23
2022-11-29T03:21:20.369Z,5.20
2022-11-29T03:25:29.191Z,5.24
2022-11-29T03:29:40.494Z,5.17
2022-11-29T03:33:52.530Z,5.15
2022-11-29T03:38:15.132Z,5.23
2022-11-29T03:42:59.827Z,5.18
2022-11-29T03:47:08.234Z,5.20
2022-11-29T03:51:26.374Z,5.14
2022-11-29T03:55:53.023Z,5.15
2022-11-29T04:00:10.165Z,5.15
2022-11-29T04:04:32.516Z,5.17
2022-11-29T04:09:12.605Z,5.10
2022-11-29T04:13:34.136Z,5.05
2022-11-29T04:18:15.392Z,5.06
2022-11-29T04:22:43.278Z,5.12
2022-11-29T04:27:14.339Z,5.10
2022-11-29T04:31:25.076Z,5.07
2022-11-29T04:35:56.392Z,5.16
2022-11-29T04:40:12.646Z,5.18
2022-11-29T04:44:51.864Z,5.16
2022-11-29T04:49:22.182Z,5.05
2022-11-29T04:53:42.102Z,5.10
2022-11-29T04:57:56.019Z,5.14
2022-11-29T05:02:07.204Z,5.12
2022-11-29T05:06:32.639Z,5.14
2022-11-29T05:10:44.839Z,5.13
2022-11-29T05:15:04.850Z,5.13
2022-11-29T05:19:34.373Z,5.13
2022-11-29T05:24:03.366Z,5.16
2022-11-29T05:28:26.873Z,5.18
2022-11-29T05:32:45.466Z,5.21
2022-11-29T05:37:06.758Z,5.16
2022-11-29T05:41:23.597Z,5.10
2022-11-29T05:45:46.953Z,5.13
2022-11-29T05:50:07.493Z,5.07
2022-11-29T05:54:25.393Z,5.03
2022-11-29T05:58:45.300Z,4.99
2022-11-29T06:02:58.370Z,5.04
2022-11-29T06:07:19.873Z,5.02
2022-11-29T06:11:30.901Z,5.09
2022-11-29T06:16:02.713Z,5.04
2022-11-29T06:20:28.359Z,5.01
2022-11-29T06:24:52.827Z,5.05
2022-11-29T06:29:13.096Z,5.05
2022-11-29T06:33:25.353Z,5.03
2022-11-29T06:37:33.819Z,5.02
2022-11-29T06:41:35.707Z,5.04
2022-11-29T06:45:37.587Z,5.03
2022-11-29T06:49:46.820Z,5.12
2022-11-29T06:54:07.290Z,5.03
2022-11-29T06:58:37.783Z,4.98
2022-11-29T07:03:04.340Z,4.98
2022-11-29T07:07:19.496Z,4.96
2022-11-29T07:11:43.253Z,4.98
2022-11-29T07:16:15.872Z,5.07
2022-11-29T07:20:23.779Z,4.93
2022-11-29T07:24:44.520Z,4.95
2022-11-29T07:29:16.726Z,4.94
2022-11-29T07:33:38.535Z,5.01
2022-11-29T07:37:53.393Z,5.00
2022-11-29T07:42:22.728Z,5.01
2022-11-29T07:46:25.678Z,5.11
2022-11-29T07:50:29.037Z,5.07
2022-11-29T07:54:31.087Z,5.11
2022-11-29T07:58:33.094Z,5.20
2022-11-29T08:02:34.902Z,5.31
2022-11-29T08:06:37.284Z,5.24
2022-11-29T08:10:39.180Z,5.29
2022-11-29T08:14:40.666Z,5.35
2022-11-29T08:18:42.215Z,5.43
2022-11-29T08:22:43.944Z,5.50
2022-11-29T08:26:45.568Z,5.52
2022-11-29T08:30:47.020Z,5.61
2022-11-29T08:34:48.608Z,5.68
2022-11-29T08:38:52.849Z,5.72
2022-11-29T08:42:58.881Z,5.86
2022-11-29T08:47:18.789Z,5.92
2022-11-29T08:51:20.554Z,5.99
2022-11-29T08:55:25.195Z,6.00
2022-11-29T08:59:27.067Z,6.04
2022-11-29T09:03:47.284Z,6.12
2022-11-29T09:07:49.101Z,6.07
2022-11-29T09:11:50.726Z,6.17
2022-11-29T09:15:52.298Z,6.06
2022-11-29T09:19:54.048Z,6.13
2022-11-29T09:23:59.213Z,6.21
2022-11-29T09:28:02.867Z,6.26
2022-11-29T09:32:05.006Z,6.36
2022-11-29T09:36:08.696Z,6.43
2022-11-29T09:40:25.172Z,6.44
2022-11-29T09:44:46.064Z,6.48
2022-11-29T09:49:07.566Z,6.42
2022-11-29T09:53:29.728Z,6.41
2022-11-29T09:57:31.475Z,6.40
2022-11-29T10:01:39.973Z,6.40
2022-11-29T10:05:47.369Z,6.42
2022-11-29T10:09:56.411Z,6.39
2022-11-29T10:14:08.074Z,6.40
2022-11-29T10:18:25.474Z,6.41
2022-11-29T10:22:40.723Z,6.45
2022-11-29T10:26:43.588Z,6.44
2022-11-29T10:30:45.710Z,6.52
2022-11-29T10:34:49.710Z,6.58
2022-11-29T10:38:53.756Z,6.58
2022-11-29T10:42:56.837Z,6.58
2022-11-29T10:47:05.438Z,6.48
2022-11-29T10:51:17.352Z,6.45
2022-11-29T10:55:22.284Z,6.49
2022-11-29T10:59:27.461Z,6.55
2022-11-29T11:03:52.847Z,6.55
2022-11-29T11:07:58.805Z,6.52
2022-11-29T11:12:04.041Z,6.60
2022-11-29T11:16:19.506Z,6.77
2022-11-29T11:20:23.915Z,6.75
2022-11-29T11:24:29.845Z,6.73
2022-11-29T11:28:43.581Z,6.83
2022-11-29T11:33:22.930Z,6.82
2022-11-29T11:37:30.156Z,6.79
2022-11-29T11:41:54.231Z,6.81
2022-11-29T11:46:00.142Z,6.83
2022-11-29T11:50:04.686Z,6.77
2022-11-29T11:54:14.753Z,6.83
2022-11-29T11:58:21.784Z,6.77
2022-11-29T12:02:37.524Z,6.92
2022-11-29T12:07:04.236Z,6.91
2022-11-29T12:11:10.260Z,7.00
2022-11-29T12:15:20.164Z,6.90
2022-11-29T12:19:32.260Z,6.80
2022-11-29T12:23:57.609Z,6.87
2022-11-29T12:27:59.296Z,6.78
2022-11-29T12:32:40.103Z,6.74
2022-11-29T12:36:49.704Z,6.66
2022-11-29T12:41:06.526Z,6.60
2022-11-29T12:45:23.434Z,6.65
2022-11-29T12:49:34.669Z,6.71
2022-11-29T12:54:09.349Z,6.68
2022-11-29T12:58:18.576Z,6.65
2022-11-29T13:02:48.544Z,6.65
2022-11-29T13:06:56.471Z,6.73
2022-11-29T13:11:03.893Z,6.80
2022-11-29T13:15:14.781Z,6.75
2022-11-29T13:19:29.154Z,6.71
2022-11-29T13:28:32.198Z,6.63
2022-11-29T13:32:51.725Z,6.60
2022-11-29T13:37:23.358Z,6.52
2022-11-29T13:41:36.113Z,6.53
2022-11-29T13:45:47.362Z,6.48
2022-11-29T13:50:02.478Z,6.38
2022-11-29T13:54:28.615Z,6.35
2022-11-29T13:58:37.452Z,6.31
2022-11-29T14:02:39.174Z,6.31
2022-11-29T14:06:41.339Z,6.38
2022-11-29T14:10:49.081Z,6.34
2022-11-29T14:14:50.716Z,6.16
2022-11-29T14:19:08.320Z,6.13
2022-11-29T14:23:16.665Z,6.17
2022-11-29T14:27:21.527Z,6.15
2022-11-29T14:31:52.090Z,6.10
2022-11-29T14:36:12.584Z,5.99
2022-11-29T14:40:42.244Z,5.99
2022-11-29T14:44:52.805Z,6.06
2022-11-29T14:48:54.397Z,5.99
2022-11-29T14:52:56.087Z,5.95
2022-11-29T14:56:58.074Z,5.89
2022-11-29T15:01:09.659Z,5.89
2022-11-29T15:05:54.453Z,5.83
2022-11-29T15:09:58.382Z,5.84
2022-11-29T15:25:54.818Z,5.80
2022-11-29T15:29:56.512Z,5.78
2022-11-29T15:33:59.072Z,5.70
2022-11-29T15:38:01.395Z,5.69
2022-11-29T15:42:08.407Z,5.69
2022-11-29T15:46:19.706Z,5.63
2022-11-29T15:50:33.041Z,5.59
2022-11-29T15:54:39.921Z,5.66
2022-11-29T15:59:14.863Z,5.60
2022-11-29T16:03:25.199Z,5.62
2022-11-29T16:07:32.445Z,5.61
2022-11-29T16:11:50.816Z,5.70
2022-11-29T16:16:15.765Z,5.63
2022-11-29T16:20:31.702Z,5.60
2022-11-29T16:24:34.872Z,5.65
2022-11-29T16:28:54.114Z,5.60
2022-11-29T16:32:59.883Z,5.58
2022-11-29T16:37:34.689Z,5.59
2022-11-29T16:41:38.598Z,5.60
2022-11-29T16:46:20.402Z,5.61
2022-11-29T16:50:25.441Z,5.62
2022-11-29T16:55:17.075Z,5.60
2022-11-29T16:59:27.389Z,5.62
2022-11-29T17:03:29.592Z,5.69
2022-11-29T17:07:41.658Z,5.65
2022-11-29T17:11:43.605Z,5.66
2022-11-29T17:15:45.385Z,5.64
2022-11-29T17:19:46.937Z,5.63
2022-11-29T17:23:48.692Z,5.62
2022-11-29T17:27:50.156Z,5.62
2022-11-29T17:32:42.377Z,5.63
2022-11-29T17:36:45.768Z,5.67
2022-11-29T17:41:23.219Z,5.65
2022-11-29T17:45:24.989Z,5.64
2022-11-29T17:49:26.557Z,5.60
2022-11-29T17:53:28.198Z,5.59
2022-11-29T17:58:04.331Z,5.54
2022-11-29T18:02:55.894Z,5.57
2022-11-29T18:06:58.899Z,5.64
2022-11-29T18:11:08.181Z,5.70
2022-11-29T18:15:09.856Z,5.65
2022-11-29T18:19:16.859Z,5.68
2022-11-29T18:23:18.854Z,5.66
2022-11-29T18:27:21.508Z,5.63
2022-11-29T18:31:28.168Z,5.55
2022-11-29T18:35:29.857Z,5.64
2022-11-29T18:40:23.018Z,5.66
2022-11-29T18:44:29.298Z,5.67
2022-11-29T18:48:31.046Z,5.67
2022-11-29T18:53:22.871Z,5.62
2022-11-29T19:08:48.308Z,5.61
2022-11-29T19:12:49.933Z,5.65
2022-11-29T19:16:54.506Z,5.60
2022-11-29T19:21:10.750Z,5.60
2022-11-29T19:29:28.916Z,5.56
2022-11-29T19:33:57.015Z,5.54
2022-11-29T19:38:15.644Z,5.50
2022-11-29T19:48:08.781Z,5.45
2022-11-29T19:52:10.414Z,5.44
2022-11-29T19:56:14.460Z,5.44
2022-11-29T20:01:51.512Z,5.43
2022-11-29T20:05:55.550Z,5.37
2022-11-29T20:10:36.886Z,5.34
2022-11-29T20:15:01.084Z,5.31
2022-11-29T20:19:13.523Z,5.26
2022-11-29T20:23:41.173Z,5.30
2022-11-29T20:28:33.746Z,5.32
2022-11-29T20:32:37.218Z,5.28
2022-11-29T20:37:08.565Z,5.30
2022-11-29T20:41:43.943Z,5.22
2022-11-29T20:45:46.678Z,5.12
2022-11-29T20:49:49.601Z,5.04
2022-11-29T20:53:55.667Z,5.04
2022-11-29T20:58:26.480Z,4.99
2022-11-29T21:03:02.411Z,4.96
2022-11-29T21:07:03.946Z,4.88
2022-11-29T21:11:10.144Z,4.82
2022-11-29T21:15:16.941Z,4.83
2022-11-29T21:19:23.812Z,4.69
2022-11-29T21:23:35.037Z,4.65
2022-11-29T21:27:37.359Z,4.69
2022-11-29T21:31:42.757Z,4.60
2022-11-29T21:36:15.504Z,4.60
2022-11-29T21:40:17.427Z,4.63
2022-11-29T21:44:18.993Z,4.66
2022-11-29T21:49:10.904Z,4.53
2022-11-29T21:53:12.463Z,4.56
2022-11-29T21:57:48.239Z,4.64
2022-11-29T22:01:53.700Z,4.72
2022-11-29T22:06:30.632Z,4.75
2022-11-29T22:10:33.042Z,4.69
2022-11-29T22:14:36.130Z,4.84
2022-11-29T22:18:38.155Z,4.74
2022-11-29T22:22:39.655Z,4.73
2022-11-29T22:26:43.605Z,4.86
2022-11-29T22:30:45.407Z,4.80
2022-11-29T22:34:47.224Z,4.77
2022-11-29T22:38:48.862Z,4.81
2022-11-29T22:42:52.054Z,4.86
2022-11-29T22:46:53.778Z,4.83
2022-11-29T22:51:05.577Z,4.82
2022-11-29T22:55:07.482Z,4.83
2022-11-29T22:59:42.884Z,4.80
2022-11-29T23:04:34.810Z,4.72
2022-11-29T23:08:37.875Z,4.64
2022-11-29T23:12:39.717Z,4.59
2022-11-29T23:16:43.813Z,4.52
2022-11-29T23:20:45.315Z,4.51
2022-11-29T23:24:47.037Z,4.51
2022-11-29T23:28:56.334Z,4.48
2022-11-29T23:32:58.043Z,4.51
2022-11-29T23:36:59.630Z,4.50
2022-11-29T23:41:01.453Z,4.50
2022-11-29T23:45:03.438Z,4.47
2022-11-29T23:50:18.964Z,4.45
2022-11-29T23:55:12.111Z,4.44
